ムルマンスク の空港の天気 - METARとTAF

ムルマンスク空港 ( ULMM / MMK ) - ロシア ムルマンスク
飛行場実況気象(Metar)
観測時間01/23 08:30 MSK (01/23 05:30 UTC)
風向・風速東南東 2m/s
視程10km以上
天気現象
全天の4割程度の雲 雲底高度 550m
気温-17℃
湿度77%
気圧1012hPa
METARULMM 230530Z 12002MPS 9999 SCT018CB M17/M20 Q1012 R13/490235 NOSIG RMK QFE752
過去の天気等 Google飛行場航空写真 Wunderground天気予報

過去48時間のMETAR

飛行場予報(TAF)
発表時間: 1/23 07:50 MSK (1/23 04:50 UTC)
予報対象時間: 23日9時 MSK ~ 24日9時 MSK
風向・風速東南東 3m/s
視程10km以上
全天の8割程度の雲 雲底高度 340m
23日9時 MSK ~ 23日21時 MSK に一時的に
風向・風速不定 1m/s
視程5,000m
天気現象弱いしゅう雪
全天の8割程度の積乱雲 雲底高度 340m
23日21時 MSK ~ 24日9時 MSK に一時的に
風向・風速南南東 3m/s
視程3,100m
天気現象弱いしゅう雪 もや
全天の8割程度の積乱雲 雲底高度 340m
TAF ULMM 230450Z 2306/2406 11003MPS 9999 BKN011
TEMPO 2306/2318 VRB01MPS 5000 -SHSN BKN011CB
TEMPO 2318/2406 16003MPS 3100 -SHSN BR BKN011CB